createdAt,value
2024-01-24T00:01:11.057Z,98.26
2024-01-24T00:03:37.543Z,98.20
2024-01-24T00:06:03.780Z,98.11
2024-01-24T00:08:30.261Z,98.04
2024-01-24T00:10:56.606Z,97.84
2024-01-24T00:13:23.131Z,97.68
2024-01-24T00:15:49.650Z,97.50
2024-01-24T00:18:16.241Z,97.11
2024-01-24T00:20:42.504Z,96.88
2024-01-24T00:23:08.951Z,96.76
2024-01-24T00:25:35.494Z,96.51
2024-01-24T00:28:01.885Z,96.41
2024-01-24T00:30:28.265Z,96.30
2024-01-24T00:32:54.832Z,96.37
2024-01-24T00:35:21.230Z,96.51
2024-01-24T00:37:47.627Z,96.38
2024-01-24T00:40:14.080Z,96.19
2024-01-24T00:42:40.579Z,96.01
2024-01-24T00:45:06.967Z,95.75
2024-01-24T00:47:33.439Z,95.65
2024-01-24T00:49:59.815Z,95.67
2024-01-24T00:52:26.268Z,95.67
2024-01-24T00:54:52.814Z,95.81
2024-01-24T00:57:19.253Z,95.75
2024-01-24T00:59:45.648Z,95.79
2024-01-24T01:02:12.058Z,95.93
2024-01-24T01:04:38.407Z,96.11
2024-01-24T01:07:04.894Z,96.31
2024-01-24T01:09:31.353Z,96.37
2024-01-24T01:11:57.715Z,96.36
2024-01-24T01:14:24.062Z,96.41
2024-01-24T01:16:50.470Z,96.53
2024-01-24T01:19:16.923Z,96.70
2024-01-24T01:21:43.448Z,96.77
2024-01-24T01:24:09.882Z,96.76
2024-01-24T01:26:36.210Z,96.81
2024-01-24T01:29:02.566Z,97.09
2024-01-24T01:31:29.078Z,97.01
2024-01-24T01:33:55.492Z,96.95
2024-01-24T01:36:23.629Z,96.76
2024-01-24T01:38:48.386Z,96.78
2024-01-24T01:41:14.812Z,96.62
2024-01-24T01:43:41.214Z,96.57
2024-01-24T01:46:07.664Z,96.62
2024-01-24T01:48:34.138Z,96.71
2024-01-24T01:51:00.447Z,96.87
2024-01-24T01:53:26.856Z,96.97
2024-01-24T01:55:53.331Z,97.09
2024-01-24T01:58:19.725Z,97.37
2024-01-24T02:00:46.173Z,97.51
2024-01-24T02:03:12.689Z,97.60
2024-01-24T02:05:39.439Z,97.35
2024-01-24T02:08:05.486Z,97.18
2024-01-24T02:10:32.023Z,97.25
2024-01-24T02:12:58.479Z,97.35
2024-01-24T02:15:24.896Z,97.54
2024-01-24T02:17:51.288Z,97.54
2024-01-24T02:20:17.740Z,97.79
2024-01-24T02:22:44.111Z,97.83
2024-01-24T02:25:10.814Z,97.74
2024-01-24T02:27:37.244Z,97.89
2024-01-24T02:30:03.691Z,98.15
2024-01-24T02:32:30.141Z,98.30
2024-01-24T02:34:56.577Z,98.44
2024-01-24T02:37:23.082Z,98.38
2024-01-24T02:39:49.643Z,98.17
2024-01-24T02:42:15.991Z,97.98
2024-01-24T02:44:42.344Z,97.64
2024-01-24T02:47:08.708Z,97.19
2024-01-24T02:49:35.305Z,96.90
2024-01-24T02:52:01.566Z,96.42
2024-01-24T02:54:28.062Z,96.30
2024-01-24T02:56:54.451Z,96.17
2024-01-24T02:59:20.856Z,96.10
2024-01-24T03:01:47.322Z,96.14
2024-01-24T03:04:13.968Z,95.85
2024-01-24T03:06:40.311Z,95.94
2024-01-24T03:09:06.711Z,95.87
2024-01-24T03:11:33.144Z,95.78
2024-01-24T03:13:59.690Z,95.97
2024-01-24T03:16:26.039Z,95.94
2024-01-24T03:18:52.871Z,95.79
2024-01-24T03:21:19.222Z,95.94
2024-01-24T03:23:45.489Z,95.79
2024-01-24T03:26:11.961Z,95.94
2024-01-24T03:28:38.396Z,96.24
2024-01-24T03:31:04.752Z,96.20
2024-01-24T03:33:31.348Z,96.11
2024-01-24T03:35:57.602Z,96.01
2024-01-24T03:38:24.084Z,96.29
2024-01-24T03:40:50.399Z,96.49
2024-01-24T03:43:16.902Z,96.74
2024-01-24T03:45:43.386Z,96.77
2024-01-24T03:48:09.800Z,96.46
2024-01-24T03:50:36.104Z,96.08
2024-01-24T03:53:02.504Z,95.89
2024-01-24T03:55:28.895Z,95.63
2024-01-24T03:57:55.418Z,95.75
2024-01-24T04:00:21.815Z,95.61
2024-01-24T04:02:48.239Z,95.46
2024-01-24T04:05:14.689Z,95.28
2024-01-24T04:07:41.103Z,95.30
2024-01-24T04:10:07.540Z,95.39
2024-01-24T04:12:34.111Z,95.53
2024-01-24T04:15:00.585Z,95.92
2024-01-24T04:17:27.090Z,96.12
2024-01-24T04:19:53.434Z,96.22
2024-01-24T04:22:19.843Z,96.02
2024-01-24T04:24:46.288Z,95.88
2024-01-24T04:27:12.904Z,95.87
2024-01-24T04:29:39.280Z,95.81
2024-01-24T04:32:05.740Z,95.87
2024-01-24T04:34:32.339Z,95.88
2024-01-24T04:36:58.634Z,95.75
2024-01-24T04:39:24.994Z,95.83
2024-01-24T04:41:56.242Z,95.84
2024-01-24T04:44:17.840Z,95.99
2024-01-24T04:46:44.361Z,96.16
2024-01-24T04:49:22.952Z,96.30
2024-01-24T04:51:37.263Z,96.25
2024-01-24T04:54:03.646Z,96.41
2024-01-24T04:56:30.074Z,96.61
2024-01-24T04:58:56.429Z,96.83
2024-01-24T05:01:23.071Z,96.91
2024-01-24T05:03:49.489Z,96.77
2024-01-24T05:06:15.901Z,96.91
2024-01-24T05:08:42.355Z,96.73
2024-01-24T05:11:08.805Z,96.82
2024-01-24T05:13:35.138Z,96.93
2024-01-24T05:16:01.657Z,97.25
2024-01-24T05:18:28.132Z,97.54
2024-01-24T05:20:54.431Z,97.56
2024-01-24T05:23:20.799Z,97.35
2024-01-24T05:25:47.264Z,97.17
2024-01-24T05:28:13.645Z,97.04
2024-01-24T05:30:40.330Z,97.21
2024-01-24T05:33:06.612Z,97.15
2024-01-24T05:35:33.017Z,97.07
2024-01-24T05:37:59.360Z,97.04
2024-01-24T05:40:25.819Z,96.86
2024-01-24T05:42:53.596Z,96.59
2024-01-24T05:45:18.696Z,96.57
2024-01-24T05:47:45.121Z,96.48
2024-01-24T05:50:11.503Z,96.41
2024-01-24T05:52:39.693Z,96.48
2024-01-24T05:55:04.403Z,96.61
2024-01-24T05:57:30.714Z,96.63
2024-01-24T05:59:57.281Z,96.59
2024-01-24T06:02:23.629Z,96.63
2024-01-24T06:04:50.377Z,96.64
2024-01-24T06:07:16.864Z,96.63
2024-01-24T06:09:43.251Z,96.43
2024-01-24T06:12:09.538Z,96.36
2024-01-24T06:14:35.980Z,96.46
2024-01-24T06:17:02.387Z,96.36
2024-01-24T06:19:28.851Z,96.16
2024-01-24T06:21:55.290Z,96.02
2024-01-24T06:24:23.282Z,95.95
2024-01-24T06:26:48.020Z,95.89
2024-01-24T06:29:14.429Z,95.71
2024-01-24T06:31:40.845Z,95.63
2024-01-24T06:34:07.436Z,95.46
2024-01-24T06:36:33.664Z,95.29
2024-01-24T06:39:00.182Z,95.15
2024-01-24T06:41:26.532Z,94.96
2024-01-24T06:43:52.933Z,94.53
2024-01-24T06:46:19.372Z,93.94
2024-01-24T06:48:46.027Z,93.11
2024-01-24T06:51:12.276Z,92.72
2024-01-24T06:53:38.800Z,91.04
2024-01-24T06:56:05.199Z,88.18
2024-01-24T06:58:31.724Z,86.78
2024-01-24T07:00:58.216Z,85.22
2024-01-24T07:03:24.698Z,83.60
2024-01-24T07:05:50.973Z,81.89
2024-01-24T07:08:17.396Z,81.25
2024-01-24T07:10:43.836Z,80.13
2024-01-24T07:13:10.286Z,78.36
2024-01-24T07:15:36.682Z,77.14
2024-01-24T07:18:03.210Z,75.89
2024-01-24T07:20:29.463Z,73.94
2024-01-24T07:22:55.909Z,71.93
2024-01-24T07:25:22.341Z,71.30
2024-01-24T07:27:48.860Z,70.75
2024-01-24T07:30:15.155Z,70.59
2024-01-24T07:32:41.624Z,70.08
2024-01-24T07:35:08.080Z,69.99
2024-01-24T07:37:34.476Z,69.88
2024-01-24T07:40:01.067Z,68.43
2024-01-24T07:42:27.341Z,67.67
2024-01-24T07:44:53.682Z,67.84
2024-01-24T07:47:20.230Z,68.26
2024-01-24T07:49:46.675Z,67.56
2024-01-24T07:52:13.291Z,67.82
2024-01-24T07:54:39.536Z,67.96
2024-01-24T07:57:05.950Z,66.19
2024-01-24T07:59:32.342Z,67.12
2024-01-24T08:01:58.941Z,66.31
2024-01-24T08:04:25.448Z,65.79
2024-01-24T08:06:52.021Z,66.23
2024-01-24T08:09:18.358Z,66.65
2024-01-24T08:11:44.767Z,65.98
2024-01-24T08:14:11.114Z,66.42
2024-01-24T08:16:37.619Z,66.87
2024-01-24T08:19:04.150Z,66.93
2024-01-24T08:21:30.501Z,65.46
2024-01-24T08:23:56.850Z,65.13
2024-01-24T08:26:23.346Z,65.29
2024-01-24T08:28:49.728Z,65.32
2024-01-24T08:31:16.202Z,65.36
2024-01-24T08:33:42.822Z,64.98
2024-01-24T08:36:09.065Z,65.26
2024-01-24T08:38:35.466Z,65.48
2024-01-24T08:41:01.951Z,65.17
2024-01-24T08:43:28.325Z,64.33
2024-01-24T08:45:54.884Z,64.91
2024-01-24T08:48:21.254Z,65.01
2024-01-24T08:50:47.692Z,64.04
2024-01-24T08:53:14.099Z,64.00
2024-01-24T08:55:40.516Z,64.59
2024-01-24T08:58:07.037Z,64.47
2024-01-24T09:00:33.431Z,64.62
2024-01-24T09:02:59.840Z,64.59
2024-01-24T09:05:26.852Z,62.96
2024-01-24T09:07:53.184Z,63.48
2024-01-24T09:10:19.641Z,63.52
2024-01-24T09:12:46.039Z,62.84
2024-01-24T09:15:12.393Z,63.26
2024-01-24T09:17:38.902Z,63.12
2024-01-24T09:20:05.371Z,62.48
2024-01-24T09:22:31.673Z,63.12
2024-01-24T09:24:58.216Z,63.49
2024-01-24T09:27:24.520Z,62.79
2024-01-24T09:29:50.883Z,63.18
2024-01-24T09:32:17.324Z,63.03
2024-01-24T09:34:44.090Z,61.71
2024-01-24T09:37:10.177Z,62.68
2024-01-24T09:39:36.658Z,62.39
2024-01-24T09:42:03.046Z,61.65
2024-01-24T09:44:29.497Z,60.99
2024-01-24T09:46:55.853Z,60.63
2024-01-24T09:49:22.410Z,61.86
2024-01-24T09:51:48.661Z,61.80
2024-01-24T09:54:15.175Z,61.33
2024-01-24T09:56:41.614Z,61.24
2024-01-24T09:59:07.912Z,60.37
2024-01-24T10:01:34.477Z,58.89
2024-01-24T10:04:00.929Z,59.48
2024-01-24T10:06:27.449Z,60.42
2024-01-24T10:08:54.022Z,59.54
2024-01-24T10:11:20.568Z,59.14
2024-01-24T10:13:46.925Z,59.34
2024-01-24T10:16:13.484Z,60.68
2024-01-24T10:18:39.805Z,58.93
2024-01-24T10:21:06.777Z,59.91
2024-01-24T10:23:32.930Z,58.64
2024-01-24T10:25:59.351Z,59.83
2024-01-24T10:28:25.859Z,59.61
2024-01-24T10:30:52.690Z,59.62
2024-01-24T10:33:19.658Z,57.83
2024-01-24T10:35:45.513Z,57.99
2024-01-24T10:38:11.967Z,58.97
2024-01-24T10:40:38.490Z,59.36
2024-01-24T10:43:04.992Z,59.21
2024-01-24T10:45:31.363Z,59.05
2024-01-24T10:47:57.775Z,58.02
2024-01-24T10:50:24.419Z,57.38
2024-01-24T10:52:53.182Z,56.82
2024-01-24T10:55:17.307Z,57.26
2024-01-24T10:57:44.231Z,57.20
2024-01-24T11:00:10.251Z,57.92
2024-01-24T11:02:36.645Z,58.30
2024-01-24T11:05:03.087Z,58.16
2024-01-24T11:07:29.406Z,56.56
2024-01-24T11:09:55.985Z,56.88
2024-01-24T11:12:22.324Z,56.92
2024-01-24T11:14:48.739Z,55.88
2024-01-24T11:17:15.177Z,55.87
2024-01-24T11:19:41.860Z,56.08
2024-01-24T11:22:13.608Z,55.39
2024-01-24T11:24:34.608Z,55.55
2024-01-24T11:27:01.119Z,56.10
2024-01-24T11:29:27.660Z,55.76
2024-01-24T11:31:54.104Z,56.00
2024-01-24T11:34:20.706Z,56.99
2024-01-24T11:36:46.897Z,57.45
2024-01-24T11:39:13.394Z,57.38
2024-01-24T11:41:39.837Z,57.24
2024-01-24T11:44:06.257Z,57.14
2024-01-24T11:46:32.691Z,57.42
2024-01-24T11:48:59.282Z,55.96
2024-01-24T11:51:25.685Z,55.14
2024-01-24T11:53:52.079Z,55.61
2024-01-24T11:56:18.563Z,55.48
2024-01-24T11:58:44.985Z,55.42
2024-01-24T12:01:11.521Z,55.88
2024-01-24T12:03:37.831Z,55.26
2024-01-24T12:06:04.268Z,55.27
2024-01-24T12:08:30.685Z,55.31
2024-01-24T12:10:58.157Z,55.20
2024-01-24T12:13:24.732Z,55.65
2024-01-24T12:15:51.229Z,55.78
2024-01-24T12:18:17.938Z,54.94
2024-01-24T12:20:46.361Z,54.58
2024-01-24T12:23:12.885Z,54.45
2024-01-24T12:25:41.729Z,53.32
2024-01-24T12:28:08.226Z,54.46
2024-01-24T12:30:34.844Z,54.81
2024-01-24T12:33:01.210Z,53.40
2024-01-24T12:35:27.686Z,54.34
2024-01-24T12:37:54.085Z,52.58
2024-01-24T12:40:20.619Z,53.14
2024-01-24T12:42:47.130Z,54.05
2024-01-24T12:45:13.693Z,54.38
2024-01-24T12:47:40.135Z,54.67
2024-01-24T12:50:06.607Z,53.38
2024-01-24T12:52:32.881Z,54.68
2024-01-24T12:54:59.381Z,53.38
2024-01-24T12:57:25.715Z,53.86
2024-01-24T12:59:52.044Z,53.00
2024-01-24T13:02:18.581Z,53.17
2024-01-24T13:04:45.185Z,53.56
2024-01-24T13:07:11.574Z,54.22
2024-01-24T13:09:42.842Z,53.57
2024-01-24T13:12:04.467Z,54.88
2024-01-24T13:14:30.917Z,54.96
2024-01-24T13:16:57.333Z,53.80
2024-01-24T13:19:23.870Z,54.00
2024-01-24T13:21:50.272Z,53.86
2024-01-24T13:24:16.597Z,54.37
2024-01-24T13:26:43.626Z,54.39
2024-01-24T13:29:09.463Z,54.22
2024-01-24T13:31:36.067Z,54.76
2024-01-24T13:34:02.482Z,54.78
2024-01-24T13:36:28.989Z,55.18
2024-01-24T13:38:55.361Z,54.81
2024-01-24T13:41:21.887Z,54.37
2024-01-24T13:43:48.168Z,54.54
2024-01-24T13:46:14.769Z,55.17
2024-01-24T13:48:41.146Z,56.38
2024-01-24T13:51:07.544Z,56.25
2024-01-24T13:53:33.890Z,56.15
2024-01-24T13:56:00.403Z,56.11
2024-01-24T13:58:27.011Z,57.60
2024-01-24T14:00:53.352Z,57.57
2024-01-24T14:03:19.716Z,57.66
2024-01-24T14:05:46.152Z,57.97
2024-01-24T14:08:12.553Z,58.51
2024-01-24T14:10:41.045Z,58.84
2024-01-24T14:13:07.538Z,59.28
2024-01-24T14:15:36.568Z,59.63
2024-01-24T14:18:00.408Z,60.97
2024-01-24T14:20:26.765Z,61.83
2024-01-24T14:22:53.131Z,62.31
2024-01-24T14:25:19.525Z,62.76
2024-01-24T14:27:45.957Z,63.23
2024-01-24T14:30:12.404Z,64.43
2024-01-24T14:32:38.798Z,64.75
2024-01-24T14:35:05.280Z,65.19
2024-01-24T14:37:33.373Z,65.79
2024-01-24T14:39:58.066Z,66.13
2024-01-24T14:42:24.476Z,66.33
2024-01-24T14:44:51.038Z,66.72
2024-01-24T14:47:17.370Z,66.92
2024-01-24T14:49:43.958Z,67.12
2024-01-24T14:52:10.346Z,67.42
2024-01-24T14:54:36.767Z,67.61
2024-01-24T14:57:03.343Z,67.69
2024-01-24T14:59:29.811Z,68.07
2024-01-24T15:01:56.263Z,68.38
2024-01-24T15:04:22.875Z,68.75
2024-01-24T15:06:49.233Z,68.79
2024-01-24T15:09:15.632Z,69.30
2024-01-24T15:11:41.988Z,69.84
2024-01-24T15:14:08.540Z,69.96
2024-01-24T15:16:34.970Z,70.20
2024-01-24T15:19:01.482Z,70.09
2024-01-24T15:21:31.860Z,70.22
2024-01-24T15:23:54.239Z,70.45
2024-01-24T15:26:20.597Z,71.01
2024-01-24T15:28:47.114Z,71.18
2024-01-24T15:31:13.582Z,71.63
2024-01-24T15:33:40.060Z,72.03
2024-01-24T15:36:06.412Z,71.94
2024-01-24T15:38:32.954Z,71.76
2024-01-24T15:40:59.292Z,72.14
2024-01-24T15:43:27.073Z,72.10
2024-01-24T15:45:53.488Z,71.98
2024-01-24T15:48:19.968Z,71.72
2024-01-24T15:50:46.708Z,71.58
2024-01-24T15:53:13.163Z,71.43
2024-01-24T15:55:39.528Z,71.68
2024-01-24T15:58:06.136Z,72.12
2024-01-24T16:00:32.481Z,72.30
2024-01-24T16:02:59.059Z,72.45
2024-01-24T16:05:25.450Z,72.64
2024-01-24T16:07:51.911Z,72.49
2024-01-24T16:10:20.626Z,72.76
2024-01-24T16:12:47.136Z,72.80
2024-01-24T16:15:13.447Z,72.96
2024-01-24T16:17:40.012Z,73.04
2024-01-24T16:20:06.481Z,72.82
2024-01-24T16:22:36.434Z,72.84
2024-01-24T16:24:59.348Z,72.82
2024-01-24T16:27:25.878Z,72.64
2024-01-24T16:29:52.676Z,72.45
2024-01-24T16:32:19.228Z,72.71
2024-01-24T16:34:46.516Z,72.87
2024-01-24T16:37:12.865Z,73.12
2024-01-24T16:39:39.287Z,73.16
2024-01-24T16:42:05.740Z,73.33
2024-01-24T16:44:32.143Z,73.16
2024-01-24T16:46:58.724Z,73.06
2024-01-24T16:49:25.198Z,72.98
2024-01-24T16:51:51.579Z,73.00
2024-01-24T16:54:17.948Z,72.94
2024-01-24T16:56:44.422Z,73.02
2024-01-24T16:59:10.783Z,73.12
2024-01-24T17:01:37.501Z,73.19
2024-01-24T17:04:03.749Z,73.00
2024-01-24T17:06:30.145Z,72.90
2024-01-24T17:08:56.593Z,72.93
2024-01-24T17:11:23.036Z,73.00
2024-01-24T17:13:49.380Z,73.18
2024-01-24T17:16:15.815Z,73.09
2024-01-24T17:18:42.286Z,73.31
2024-01-24T17:21:08.683Z,73.53
2024-01-24T17:23:35.198Z,73.44
2024-01-24T17:26:01.637Z,74.15
2024-01-24T17:28:27.980Z,74.52
2024-01-24T17:30:54.779Z,74.45
2024-01-24T17:33:21.318Z,74.69
2024-01-24T17:35:47.681Z,74.62
2024-01-24T17:38:14.040Z,74.59
2024-01-24T17:40:40.539Z,74.50
2024-01-24T17:43:07.341Z,74.27
2024-01-24T17:45:33.755Z,73.93
2024-01-24T17:48:00.187Z,73.83
2024-01-24T17:50:26.575Z,73.63
2024-01-24T17:52:52.924Z,73.74
2024-01-24T17:55:19.456Z,74.11
2024-01-24T17:57:45.841Z,74.20
2024-01-24T18:00:12.315Z,74.16
2024-01-24T18:02:38.649Z,73.67
2024-01-24T18:05:05.138Z,73.85
2024-01-24T18:07:31.829Z,73.69
2024-01-24T18:09:58.091Z,73.45
2024-01-24T18:12:24.480Z,72.88
2024-01-24T18:14:50.913Z,72.22
2024-01-24T18:17:17.331Z,72.19
2024-01-24T18:19:43.930Z,72.27
2024-01-24T18:22:10.215Z,72.36
2024-01-24T18:24:36.652Z,71.91
2024-01-24T18:27:03.015Z,71.79
2024-01-24T18:29:29.403Z,71.81
2024-01-24T18:31:55.743Z,72.49
2024-01-24T18:34:22.230Z,72.74
2024-01-24T18:36:48.512Z,72.44
2024-01-24T18:39:14.919Z,72.08
2024-01-24T18:41:41.353Z,72.23
2024-01-24T18:44:07.806Z,72.21
2024-01-24T18:46:34.217Z,72.48
2024-01-24T18:49:04.321Z,72.27
2024-01-24T18:51:27.181Z,71.63
2024-01-24T18:53:53.617Z,72.17
2024-01-24T18:56:20.068Z,72.55
2024-01-24T18:58:46.887Z,72.73
2024-01-24T19:01:13.340Z,72.04
2024-01-24T19:03:39.864Z,71.62
2024-01-24T19:06:06.228Z,71.88
2024-01-24T19:08:32.633Z,71.70
2024-01-24T19:10:59.035Z,71.22
2024-01-24T19:13:25.600Z,71.25
2024-01-24T19:15:51.972Z,70.92
2024-01-24T19:18:24.838Z,70.86
2024-01-24T19:20:48.034Z,71.01
2024-01-24T19:23:14.518Z,71.53
2024-01-24T19:25:40.948Z,72.39
2024-01-24T19:28:07.485Z,73.59
2024-01-24T19:30:33.754Z,74.83
2024-01-24T19:33:00.317Z,76.10
2024-01-24T19:35:26.709Z,77.40
2024-01-24T19:37:53.137Z,77.99
2024-01-24T19:40:19.545Z,78.39
2024-01-24T19:42:45.980Z,79.10
2024-01-24T19:45:12.317Z,79.87
2024-01-24T19:47:38.733Z,80.06
2024-01-24T19:50:06.005Z,80.14
2024-01-24T19:52:32.525Z,80.50
2024-01-24T19:54:58.919Z,81.03
2024-01-24T19:57:25.417Z,81.42
2024-01-24T19:59:51.828Z,82.11
2024-01-24T20:02:18.305Z,82.36
2024-01-24T20:04:44.677Z,82.46
2024-01-24T20:07:11.250Z,82.60
2024-01-24T20:09:37.657Z,82.96
2024-01-24T20:12:04.117Z,83.12
2024-01-24T20:14:30.531Z,83.60
2024-01-24T20:16:56.983Z,83.81
2024-01-24T20:19:25.621Z,84.18
2024-01-24T20:21:52.141Z,84.39
2024-01-24T20:24:18.511Z,84.43
2024-01-24T20:26:44.916Z,84.17
2024-01-24T20:29:11.394Z,84.31
2024-01-24T20:31:37.751Z,84.54
2024-01-24T20:34:04.262Z,84.67
2024-01-24T20:36:30.602Z,84.41
2024-01-24T20:38:57.053Z,83.81
2024-01-24T20:41:24.872Z,83.28
2024-01-24T20:43:49.887Z,83.38
2024-01-24T20:46:16.457Z,83.41
2024-01-24T20:48:43.039Z,83.61
2024-01-24T20:51:09.219Z,83.54
2024-01-24T20:53:35.731Z,83.42
2024-01-24T20:56:02.088Z,83.76
2024-01-24T20:58:28.531Z,83.62
2024-01-24T21:00:55.185Z,83.23
2024-01-24T21:03:21.340Z,83.59
2024-01-24T21:05:47.718Z,83.71
2024-01-24T21:08:14.189Z,83.61
2024-01-24T21:10:45.611Z,83.46
2024-01-24T21:13:07.137Z,83.56
2024-01-24T21:15:33.493Z,83.71
2024-01-24T21:18:00.024Z,84.45
2024-01-24T21:20:26.499Z,84.65
2024-01-24T21:22:53.355Z,84.22
2024-01-24T21:25:19.709Z,83.88
2024-01-24T21:27:46.096Z,83.50
2024-01-24T21:30:12.481Z,82.91
2024-01-24T21:32:39.084Z,82.42
2024-01-24T21:35:05.485Z,81.92
2024-01-24T21:37:32.128Z,81.59
2024-01-24T21:39:58.438Z,81.02
2024-01-24T21:42:24.886Z,81.23
2024-01-24T21:44:51.235Z,81.98
2024-01-24T21:47:17.752Z,82.13
2024-01-24T21:49:44.390Z,84.47
2024-01-24T21:52:10.642Z,82.11
2024-01-24T21:54:36.986Z,83.02
2024-01-24T21:57:03.390Z,82.20
2024-01-24T21:59:29.808Z,82.56
2024-01-24T22:01:56.217Z,84.13
2024-01-24T22:04:22.646Z,85.45
2024-01-24T22:06:49.037Z,83.29
2024-01-24T22:09:15.441Z,82.09
2024-01-24T22:11:41.890Z,83.40
2024-01-24T22:14:08.238Z,82.82
2024-01-24T22:16:34.730Z,83.05
2024-01-24T22:19:01.205Z,82.72
2024-01-24T22:21:27.592Z,82.41
2024-01-24T22:23:53.954Z,82.59
2024-01-24T22:26:20.475Z,83.06
2024-01-24T22:28:46.822Z,81.42
2024-01-24T22:31:13.387Z,80.36
2024-01-24T22:33:39.816Z,80.36
2024-01-24T22:36:06.205Z,81.92
2024-01-24T22:38:32.580Z,81.33
2024-01-24T22:40:59.091Z,79.95
2024-01-24T22:43:25.475Z,80.82
2024-01-24T22:45:51.936Z,80.57
2024-01-24T22:48:18.380Z,80.10
2024-01-24T22:50:44.722Z,81.01
2024-01-24T22:53:11.061Z,81.04
2024-01-24T22:55:37.556Z,79.70
2024-01-24T22:58:04.085Z,80.24
2024-01-24T23:00:30.463Z,80.84
2024-01-24T23:02:56.784Z,81.52
2024-01-24T23:05:23.289Z,81.38
2024-01-24T23:07:49.604Z,81.37
2024-01-24T23:10:16.131Z,81.71
2024-01-24T23:12:42.519Z,80.41
2024-01-24T23:15:08.854Z,80.49
2024-01-24T23:17:35.377Z,80.85
2024-01-24T23:20:01.832Z,79.64
2024-01-24T23:22:28.099Z,79.71
2024-01-24T23:24:54.671Z,80.46
2024-01-24T23:27:20.953Z,80.15
2024-01-24T23:29:47.381Z,80.36
2024-01-24T23:32:13.875Z,82.00
2024-01-24T23:34:40.407Z,80.79
2024-01-24T23:37:06.838Z,80.78
2024-01-24T23:39:33.112Z,79.12
2024-01-24T23:41:59.458Z,78.68
2024-01-24T23:44:25.893Z,78.85
2024-01-24T23:46:52.235Z,78.68
2024-01-24T23:49:18.872Z,79.08
2024-01-24T23:51:45.256Z,79.86
2024-01-24T23:54:11.549Z,80.67
2024-01-24T23:56:37.903Z,81.05
2024-01-24T23:59:04.432Z,81.13
